Flight Track Log - Related Links

Times and Time Zones

All times are in EDT time to prevent confusion due to time zone crossing. See the N502QS flight status page for this flight to view local times or setup timezone preferences in your user account.

Time Position Orientation Groundspeed Altitude Reporting Facility
EDT Latitude Longitude Course Direction KTS MPH feet Rate Location/Type
Fri 03:49:18 PM 33.9333 -118.4667 254° West 215 247 3,200  Level Southern California TRACON
Fri 03:50:36 PM 33.9078 -118.5711 254° West 267 307 7,300 3,600 Climbing Los Angeles Center
Fri 03:51:38 PM 33.8378 -118.5489 165° South 309 356 11,600 3,840 Climbing Los Angeles Center
Fri 03:52:41 PM 33.8675 -118.4539 69° East 319 367 15,300 3,168 Climbing Los Angeles Center
Fri 03:53:43 PM 33.9272 -118.3856 44° Northeast 336 387 18,200 2,952 Climbing Los Angeles Center
Fri 03:54:45 PM 33.9842 -118.2861 55° Northeast 355 409 21,400 2,323 Climbing Los Angeles Center
Fri 03:55:47 PM 34.0469 -118.1797 55° Northeast 381 438 23,000 1,742 Climbing Los Angeles Center
Fri 03:56:49 PM 34.1236 -118.0489 55° Northeast 395 455 25,000 1,935 Climbing Los Angeles Center
Fri 03:57:51 PM 34.1889 -117.9358 55° Northeast 408 470 27,000 968 Climbing Los Angeles Center
Fri 03:58:53 PM 34.2567 -117.8197 55° Northeast 421 484 27,000  Level Los Angeles Center
Fri 03:59:55 PM 34.3228 -117.7044 55° Northeast 419 482 27,000  Level Los Angeles Center
Fri 04:00:58 PM 34.3936 -117.5814 55° Northeast 422 486 27,000  Level Los Angeles Center
Fri 04:02:00 PM 34.4597 -117.4656 55° Northeast 421 484 27,000  Level Los Angeles Center
Fri 04:03:02 PM 34.5269 -117.3483 55° Northeast 425 489 27,000  Level Los Angeles Center
Fri 04:04:04 PM 34.5772 -117.2208 64° Northeast 425 489 27,000  Level Los Angeles Center
Fri 04:05:06 PM 34.6292 -117.0603 68° East 428 493 27,000  Level Los Angeles Center
Fri 04:06:08 PM 34.7136 -116.9267 52° Northeast 487 560 27,000  Level Los Angeles Center
Fri 04:07:10 PM 34.8000 -116.8053 49° Northeast 488 562 27,000  Level Los Angeles Center
Fri 04:08:12 PM 34.8878 -116.6792 50° Northeast 490 564 27,000 -97 Level Los Angeles Center
Fri 04:09:14 PM 34.9792 -116.5542 48° Northeast 494 568 26,800 -1,296 Descending Los Angeles Center
Fri 04:10:17 PM 35.0903 -116.4144 46° Northeast 486 559 24,300 -1,344 Descending Los Angeles Center
Fri 04:11:19 PM 35.1800 -116.3028 45° Northeast 470 541 24,000 -871 Descending Los Angeles Center
Fri 04:12:21 PM 35.2678 -116.1928 46° Northeast 458 527 22,500 -1,694 Descending Los Angeles Center
Fri 04:13:23 PM 35.3522 -116.0869 46° Northeast 439 505 20,500 -1,935 Descending Los Angeles Center
Fri 04:14:25 PM 35.4339 -115.9825 46° Northeast 427 491 18,500 -2,037 Descending Los Angeles Center
Fri 04:15:12 PM 35.5108 -115.8914 44° Northeast 427 491 16,800 -2,104 Descending Los Angeles Center
Fri 04:15:42 PM 35.5514 -115.8389 46° Northeast 414 476 15,800 -1,714 Descending Los Angeles Center
Fri 04:16:29 PM 35.6036 -115.7678 48° Northeast 397 457 14,600 -1,486 Descending Los Angeles Center
Fri 04:17:31 PM 35.6692 -115.6842 46° Northeast 354 407 13,100 -692 Descending Los Angeles Center
Fri 04:18:39 PM 35.7444 -115.5919 45° Northeast 324 373 13,100  Level Los Angeles Center
Fri 04:19:36 PM 35.8250 -115.5692 13° North 316 364 13,100 -403 Level Los Angeles Center
Fri 04:20:38 PM 35.9194 -115.5644 North 314 361 12,300 -524 Descending Los Angeles Center
Fri 04:21:42 PM 35.9894 -115.4864 42° Northeast 320 368 12,000 -528 Descending Los Angeles Center
Fri 04:22:43 PM 36.0242 -115.3872 67° East 310 357 11,200 -984 Descending Los Angeles Center
Fri 04:23:50 PM 36.0233 -115.2839 91° East 277 319 9,900 -1,033 Descending Los Angeles Center
Fri 04:24:45 PM 36.0169 -115.2036 96° East 261 300 9,100 -783 Descending Los Angeles Center
Fri 04:25:45 PM 36.0117 -115.1203 94° East 233 268 8,400 -595 Descending Los Angeles Center
Fri 04:26:46 PM 36.0075 -115.0419 94° East 218 251 7,900 -836 Descending Los Angeles Center
Fri 04:27:47 PM 36.0036 -114.9742 94° East 196 226 6,700 -1,302 Descending Los Angeles Center
Fri 04:28:55 PM 36.0394 -114.9400 38° Northeast 209 241 5,100 -879 Descending Los Angeles Center
Fri 04:29:43 PM 36.0744 -114.9719 324° Northwest 199 229 5,000 -632 Descending Los Angeles Center
Fri 04:30:49 PM 36.0744 -115.0411 270° West 174 200 3,900 -1,087 Descending Los Angeles Center
Fri 04:31:50 PM 36.0733 -115.0867 268° West 134 154 2,700 -806 Descending Los Angeles Center
Fri 04:33:03 PM 36.0733 -115.1378 270° West 142 163 2,100 -493 Descending Los Angeles Center

Login

Don't have an account? Register now (free) for customized features, flight alerts, and more!